Time;durP1;ratioP1;P1;durP2;ratioP2;P2;SDS_P1;SDS_P2;PMS_P1;PMS_P2;Temp;Humidity;BMP_temperature;BMP_pressure;BME280_temperature;BME280_humidity;BME280_pressure;Samples;Min_cycle;Max_cycle;Signal;HPM_P1;HPM_P2
2023/12/26 00:00:56;;;;;;;;;0.00;0.00;;;;;11.03;96.05;98862.00;5097727;28;8895;-58
2023/12/26 00:03:24;;;;;;;;;0.00;0.00;;;;;11.02;95.62;98869.16;5095586;28;8837;-56
2023/12/26 00:05:52;;;;;;;;;0.50;0.50;;;;;11.02;95.49;98871.84;5099615;28;8822;-58
2023/12/26 00:08:20;;;;;;;;;1.00;0.25;;;;;11.00;96.22;98868.47;5110801;28;8858;-56
2023/12/26 00:10:48;;;;;;;;;0.00;0.00;;;;;11.01;96.25;98866.66;5114632;28;8897;-57
2023/12/26 00:13:16;;;;;;;;;1.00;1.00;;;;;11.00;95.81;98862.31;5095939;28;8822;-57
2023/12/26 00:15:44;;;;;;;;;0.00;0.00;;;;;10.98;95.97;98864.28;5095921;28;8838;-56
2023/12/26 00:18:12;;;;;;;;;0.00;0.00;;;;;10.97;95.99;98847.47;5080718;28;8962;-57
2023/12/26 00:20:40;;;;;;;;;0.00;0.00;;;;;10.97;96.07;98865.25;5075700;28;8816;-58
2023/12/26 00:23:08;;;;;;;;;0.00;0.00;;;;;10.95;96.22;98859.25;5081801;28;8820;-58
2023/12/26 00:25:35;;;;;;;;;0.00;0.00;;;;;10.94;95.77;98850.41;5116451;28;8844;-57
2023/12/26 00:28:04;;;;;;;;;0.00;0.00;;;;;10.94;95.78;98839.75;5116640;28;8839;-58
2023/12/26 00:30:31;;;;;;;;;0.00;0.00;;;;;10.93;95.99;98842.59;5116554;28;8845;-56
2023/12/26 00:32:59;;;;;;;;;0.00;0.00;;;;;10.91;95.99;98842.75;5116141;28;8804;-58
2023/12/26 00:35:28;;;;;;;;;0.00;0.00;;;;;10.90;95.97;98838.41;5081083;28;8824;-57
2023/12/26 00:37:57;;;;;;;;;0.00;0.00;;;;;10.91;96.03;98842.75;5075572;28;8847;-57
2023/12/26 00:40:25;;;;;;;;;0.00;0.00;;;;;10.90;95.88;98834.88;5075400;28;8867;-58
2023/12/26 00:42:53;;;;;;;;;0.00;0.00;;;;;10.90;95.80;98845.53;5075631;28;8891;-58
2023/12/26 00:45:22;;;;;;;;;0.00;0.00;;;;;10.93;95.84;98842.59;5075652;28;8848;-57
2023/12/26 00:47:50;;;;;;;;;0.00;0.00;;;;;10.96;96.02;98840.47;5075211;28;8828;-58
2023/12/26 00:50:18;;;;;;;;;0.00;0.00;;;;;11.02;95.64;98842.53;5075762;28;8824;-57
2023/12/26 00:52:46;;;;;;;;;0.00;0.00;;;;;11.07;95.44;98842.91;5076166;28;9497;-58
2023/12/26 00:55:14;;;;;;;;;0.00;0.00;;;;;11.09;95.48;98851.56;5075039;28;8978;-58
2023/12/26 00:57:42;;;;;;;;;0.00;0.00;;;;;11.08;95.01;98833.09;5075977;28;8836;-59
2023/12/26 01:00:11;;;;;;;;;0.00;0.00;;;;;11.05;94.83;98836.88;5083494;28;8956;-59
2023/12/26 01:02:39;;;;;;;;;0.00;0.00;;;;;11.01;94.85;98832.84;5095087;28;8844;-59
2023/12/26 01:05:06;;;;;;;;;0.00;0.00;;;;;11.00;95.13;98839.16;5097272;28;8826;-58
2023/12/26 01:07:34;;;;;;;;;0.00;0.00;;;;;10.97;94.65;98844.81;5097369;28;8853;-58
2023/12/26 01:10:04;;;;;;;;;0.00;0.00;;;;;10.96;94.89;98844.94;5101824;28;8944;-59
2023/12/26 01:12:32;;;;;;;;;0.00;0.00;;;;;10.95;94.70;98848.59;5110948;28;8812;-58
2023/12/26 01:15:00;;;;;;;;;0.00;0.00;;;;;10.96;94.93;98845.78;5118782;28;8841;-59
2023/12/26 01:17:28;;;;;;;;;0.00;0.00;;;;;11.00;95.06;98838.34;5118437;28;8831;-59
2023/12/26 01:19:56;;;;;;;;;0.00;0.00;;;;;11.01;95.22;98846.16;5119675;28;8827;-58
2023/12/26 01:22:25;;;;;;;;;0.00;0.00;;;;;11.02;94.72;98863.00;5119710;28;8831;-57
2023/12/26 01:24:52;;;;;;;;;0.00;0.00;;;;;10.98;94.69;98859.78;5110765;28;8856;-58
2023/12/26 01:27:23;;;;;;;;;0.00;0.00;;;;;10.94;94.51;98861.06;5081107;28;8913;-58
2023/12/26 01:29:51;;;;;;;;;0.00;0.00;;;;;10.88;94.82;98883.00;5119462;28;8840;-58
2023/12/26 01:32:19;;;;;;;;;0.00;0.00;;;;;10.82;94.75;98864.94;5119583;28;8928;-59
2023/12/26 01:34:47;;;;;;;;;0.50;0.00;;;;;10.78;94.67;98865.41;5119240;28;8832;-59
2023/12/26 01:37:15;;;;;;;;;0.00;0.00;;;;;10.72;94.97;98852.69;5119359;28;8831;-59
2023/12/26 01:39:43;;;;;;;;;0.00;0.00;;;;;10.66;95.14;98872.75;5119772;28;8858;-59
2023/12/26 01:42:11;;;;;;;;;0.00;0.00;;;;;10.63;95.19;98867.72;5105686;28;8840;-58
2023/12/26 01:44:39;;;;;;;;;0.00;0.00;;;;;10.58;94.48;98875.31;5078398;28;8824;-59
2023/12/26 01:47:06;;;;;;;;;0.00;0.00;;;;;10.55;94.95;98872.94;5078592;28;8851;-59
2023/12/26 01:49:35;;;;;;;;;0.00;0.00;;;;;10.52;95.11;98878.56;5078470;28;8910;-59
2023/12/26 01:52:02;;;;;;;;;0.00;0.00;;;;;10.49;94.99;98878.03;5078703;28;8835;-59
2023/12/26 01:54:30;;;;;;;;;0.00;0.00;;;;;10.44;95.23;98865.16;5078049;28;8854;-59
2023/12/26 01:56:58;;;;;;;;;0.00;0.00;;;;;10.41;94.86;98881.41;5077673;28;8828;-58
2023/12/26 01:59:26;;;;;;;;;0.00;0.00;;;;;10.38;95.54;98868.41;5079151;28;8847;-59
2023/12/26 02:01:54;;;;;;;;;0.00;0.00;;;;;10.37;95.10;98889.84;5078475;28;8962;-59
2023/12/26 02:04:22;;;;;;;;;0.00;0.00;;;;;10.35;95.42;98897.13;5083357;28;8814;-59
2023/12/26 02:06:50;;;;;;;;;0.00;0.00;;;;;10.32;95.49;98890.28;5098241;28;8836;-59
2023/12/26 02:09:17;;;;;;;;;0.00;0.00;;;;;10.30;95.86;98888.75;5098532;28;8853;-59
2023/12/26 02:11:45;;;;;;;;;0.00;0.00;;;;;10.27;95.44;98894.38;5097970;28;8838;-56
2023/12/26 02:14:13;;;;;;;;;0.00;0.00;;;;;10.25;95.01;98885.72;5096704;28;8907;-58
2023/12/26 02:16:41;;;;;;;;;0.00;0.00;;;;;10.24;95.37;98889.34;5097809;28;9571;-58
2023/12/26 02:19:08;;;;;;;;;0.00;0.00;;;;;10.22;95.07;98893.97;5097635;28;8802;-57
2023/12/26 02:21:36;;;;;;;;;0.00;0.00;;;;;10.20;95.42;98907.44;5097644;28;8826;-59
2023/12/26 02:24:04;;;;;;;;;0.00;0.00;;;;;10.18;95.03;98901.38;5096324;28;8864;-57
2023/12/26 02:26:33;;;;;;;;;0.50;0.00;;;;;10.16;95.69;98906.03;5098312;28;8834;-59
2023/12/26 02:29:02;;;;;;;;;0.00;0.00;;;;;10.15;95.18;98896.38;5096835;28;8940;-59
2023/12/26 02:31:29;;;;;;;;;0.00;0.00;;;;;10.15;95.28;98901.69;5097485;28;8845;-58
2023/12/26 02:33:57;;;;;;;;;0.00;0.00;;;;;10.15;95.32;98914.16;5098179;28;9515;-58
2023/12/26 02:36:25;;;;;;;;;0.00;0.00;;;;;10.15;95.66;98919.47;5096935;28;8907;-58
2023/12/26 02:38:53;;;;;;;;;0.00;0.00;;;;;10.13;95.25;98916.13;5097428;28;8814;-57
2023/12/26 02:41:21;;;;;;;;;0.00;0.00;;;;;10.13;95.78;98913.47;5097250;28;8852;-58
2023/12/26 02:43:49;;;;;;;;;0.00;0.00;;;;;10.11;95.09;98918.91;5097522;28;8842;-57
2023/12/26 02:46:17;;;;;;;;;0.25;0.25;;;;;10.10;95.88;98914.56;5098290;28;8978;-58
2023/12/26 02:48:45;;;;;;;;;0.00;0.00;;;;;10.09;95.55;98912.91;5106088;28;8829;-57
2023/12/26 02:51:13;;;;;;;;;0.00;0.00;;;;;10.09;95.30;98909.44;5086794;28;8836;-57
2023/12/26 02:53:41;;;;;;;;;0.00;0.00;;;;;10.08;96.01;98910.41;5105112;28;8877;-59
2023/12/26 02:56:08;;;;;;;;;0.00;0.00;;;;;10.07;95.47;98908.72;5117808;28;8912;-59
2023/12/26 02:58:36;;;;;;;;;0.00;0.00;;;;;10.07;95.25;98914.03;5117722;28;8942;-59
2023/12/26 03:01:04;;;;;;;;;0.00;0.00;;;;;10.06;95.83;98907.88;5117404;28;8831;-58
2023/12/26 03:03:32;;;;;;;;;0.00;0.00;;;;;10.06;95.61;98923.00;5117362;28;8812;-59
2023/12/26 03:06:00;;;;;;;;;0.00;0.00;;;;;10.05;95.19;98919.50;5101585;28;8806;-58
2023/12/26 03:08:28;;;;;;;;;0.00;0.00;;;;;10.05;95.74;98922.19;5079615;28;9517;-58
2023/12/26 03:10:56;;;;;;;;;0.00;0.00;;;;;10.05;95.51;98926.63;5076770;28;8852;-57
2023/12/26 03:13:23;;;;;;;;;0.00;0.00;;;;;10.04;95.18;98925.81;5076893;28;8820;-58
2023/12/26 03:15:51;;;;;;;;;0.00;0.00;;;;;10.03;95.38;98910.81;5076848;28;8843;-59
2023/12/26 03:18:19;;;;;;;;;0.00;0.00;;;;;10.03;95.73;98923.28;5076535;28;8850;-58
2023/12/26 03:20:46;;;;;;;;;0.00;0.00;;;;;10.04;95.30;98924.97;5076917;28;8808;-58
2023/12/26 03:23:14;;;;;;;;;0.00;0.00;;;;;10.02;95.43;98930.38;5076829;28;8812;-57
2023/12/26 03:25:43;;;;;;;;;0.00;0.00;;;;;10.02;95.44;98927.72;5077047;28;8861;-58
2023/12/26 03:28:11;;;;;;;;;0.00;0.00;;;;;10.02;95.66;98938.38;5075893;28;8820;-57
2023/12/26 03:30:39;;;;;;;;;0.00;0.00;;;;;10.01;95.42;98926.06;5076392;28;8844;-59
2023/12/26 03:33:07;;;;;;;;;0.00;0.00;;;;;10.02;95.20;98921.59;5076485;28;8836;-58
2023/12/26 03:35:35;;;;;;;;;0.00;0.00;;;;;10.01;95.50;98926.06;5076657;28;8812;-57
2023/12/26 03:38:03;;;;;;;;;0.00;0.00;;;;;10.01;95.53;98926.06;5076601;28;9715;-58
2023/12/26 03:40:31;;;;;;;;;0.00;0.00;;;;;10.01;95.43;98930.56;5077296;28;8832;-59
2023/12/26 03:42:59;;;;;;;;;0.00;0.00;;;;;9.98;95.49;98934.34;5095412;28;8825;-56
2023/12/26 03:45:28;;;;;;;;;0.00;0.00;;;;;10.00;95.83;98935.03;5096458;28;8825;-59
2023/12/26 03:47:56;;;;;;;;;0.00;0.00;;;;;9.99;95.93;98920.03;5095555;28;8817;-58
2023/12/26 03:50:24;;;;;;;;;0.00;0.00;;;;;10.01;95.34;98941.19;5095768;28;8822;-58
2023/12/26 03:52:52;;;;;;;;;0.00;0.00;;;;;10.01;95.58;98952.66;5095658;28;8830;-57
2023/12/26 03:55:20;;;;;;;;;0.00;0.00;;;;;10.02;96.02;98935.72;5095831;28;8802;-58
2023/12/26 03:57:48;;;;;;;;;0.00;0.00;;;;;10.03;95.72;98941.91;5096407;28;8810;-58
2023/12/26 04:00:16;;;;;;;;;0.00;0.00;;;;;10.03;95.53;98948.06;5098975;28;8921;-57
2023/12/26 04:02:44;;;;;;;;;0.00;0.00;;;;;10.04;95.34;98946.25;5096521;28;9488;-58
2023/12/26 04:05:12;;;;;;;;;0.00;0.00;;;;;10.04;95.16;98960.41;5099221;28;8820;-58
2023/12/26 04:07:40;;;;;;;;;0.00;0.00;;;;;10.05;95.66;98963.88;5107243;28;8881;-56
2023/12/26 04:10:07;;;;;;;;;0.00;0.00;;;;;10.06;95.33;98965.56;5116176;28;9521;-58
2023/12/26 04:12:35;;;;;;;;;0.00;0.00;;;;;10.06;95.10;98961.09;5097942;28;8858;-59
2023/12/26 04:15:03;;;;;;;;;0.00;0.00;;;;;10.05;95.13;98959.41;5090363;28;8824;-58
2023/12/26 04:17:31;;;;;;;;;0.00;0.00;;;;;10.04;95.02;98972.84;5076421;28;8808;-57
2023/12/26 04:19:59;;;;;;;;;0.00;0.00;;;;;10.02;95.09;98974.78;5075951;28;9531;-58
2023/12/26 04:22:27;;;;;;;;;0.00;0.00;;;;;10.03;95.47;98973.81;5076166;28;8891;-58
2023/12/26 04:24:55;;;;;;;;;0.00;0.00;;;;;10.01;95.07;98955.31;5115257;28;8928;-58
2023/12/26 04:27:32;;;;;;;;;0.00;0.00;;;;;10.01;95.44;98965.13;5116745;28;8958;-59
2023/12/26 04:30:00;;;;;;;;;0.00;0.00;;;;;10.00;95.56;98972.25;5116342;28;8850;-59
2023/12/26 04:32:28;;;;;;;;;0.00;0.00;;;;;10.00;95.46;98982.88;5097524;28;8836;-58
2023/12/26 04:34:56;;;;;;;;;0.00;0.00;;;;;10.01;95.58;98965.13;5076075;28;8954;-59
2023/12/26 04:37:26;;;;;;;;;0.00;0.00;;;;;10.00;95.31;98955.44;5075005;28;8830;-57
2023/12/26 04:39:53;;;;;;;;;0.00;0.00;;;;;10.01;95.66;98963.28;5078124;28;8934;-57
2023/12/26 04:42:22;;;;;;;;;0.00;0.00;;;;;10.00;95.21;98966.94;5079672;28;8844;-59
2023/12/26 04:44:49;;;;;;;;;0.00;0.00;;;;;10.01;95.33;98976.59;5079929;28;8836;-59
2023/12/26 04:47:17;;;;;;;;;0.00;0.00;;;;;10.00;95.82;98982.88;5079394;28;8832;-58
2023/12/26 04:49:45;;;;;;;;;0.00;0.00;;;;;9.99;95.26;98959.94;5080172;28;8875;-58
2023/12/26 04:52:13;;;;;;;;;0.00;0.00;;;;;9.99;95.25;98959.94;5079730;28;8877;-59
2023/12/26 04:54:42;;;;;;;;;0.00;0.00;;;;;9.99;95.38;98970.56;5079475;28;8843;-58
2023/12/26 04:57:11;;;;;;;;;0.00;0.00;;;;;10.00;95.80;98979.38;5079573;28;8823;-59
2023/12/26 04:59:38;;;;;;;;;0.00;0.00;;;;;10.00;95.64;98984.69;5084259;28;8824;-58
2023/12/26 05:02:06;;;;;;;;;0.00;0.00;;;;;10.00;95.18;98992.69;5099637;28;8911;-57
2023/12/26 05:04:34;;;;;;;;;0.00;0.00;;;;;10.00;95.69;98990.00;5099539;28;8851;-57
2023/12/26 05:07:03;;;;;;;;;0.00;0.00;;;;;10.01;95.77;99005.03;5098195;28;8817;-58
2023/12/26 05:09:30;;;;;;;;;0.00;0.00;;;;;10.02;95.21;99010.19;5099698;28;8814;-58
2023/12/26 05:11:58;;;;;;;;;0.00;0.00;;;;;10.03;95.66;99011.88;5099280;28;8834;-59
2023/12/26 05:14:26;;;;;;;;;0.00;0.00;;;;;10.04;95.31;99020.72;5102732;28;8806;-58
2023/12/26 05:16:54;;;;;;;;;0.00;0.00;;;;;10.04;95.53;99024.22;5099297;28;8826;-58
2023/12/26 05:19:22;;;;;;;;;0.00;0.00;;;;;10.06;95.28;99030.25;5108041;28;8792;-58
2023/12/26 05:21:50;;;;;;;;;0.00;0.00;;;;;10.09;95.72;99032.59;5120050;28;8808;-58
2023/12/26 05:24:17;;;;;;;;;0.00;0.00;;;;;10.10;95.83;99031.63;5113379;28;8839;-58
2023/12/26 05:26:45;;;;;;;;;0.00;0.00;;;;;10.15;95.21;99037.38;5119630;28;8844;-58
2023/12/26 05:29:13;;;;;;;;;0.00;0.00;;;;;10.20;95.41;99044.91;5119708;28;8828;-58
2023/12/26 05:31:41;;;;;;;;;0.00;0.00;;;;;10.24;95.35;99044.50;5119623;28;8816;-59
2023/12/26 05:34:08;;;;;;;;;0.00;0.00;;;;;10.26;95.01;99058.47;5119487;28;8846;-59
2023/12/26 05:36:37;;;;;;;;;0.00;0.00;;;;;10.29;94.98;99052.91;5104338;28;8849;-58
2023/12/26 05:39:05;;;;;;;;;0.00;0.00;;;;;10.30;95.14;99062.56;5099432;28;8829;-58
2023/12/26 05:41:32;;;;;;;;;0.00;0.00;;;;;10.33;95.23;99059.59;5080677;28;8828;-59
2023/12/26 05:44:00;;;;;;;;;1.00;1.00;;;;;10.34;94.63;99065.78;5078614;28;8841;-58
2023/12/26 05:46:28;;;;;;;;;0.00;0.00;;;;;10.34;94.88;99071.94;5078546;28;8840;-59
2023/12/26 05:48:56;;;;;;;;;0.00;0.00;;;;;10.33;94.81;99080.06;5078567;28;8812;-59
2023/12/26 05:51:24;;;;;;;;;0.00;0.00;;;;;10.32;94.58;99089.03;5078069;28;8836;-58
2023/12/26 05:53:52;;;;;;;;;0.00;0.00;;;;;10.30;94.68;99090.97;5078183;28;8835;-59
2023/12/26 05:56:20;;;;;;;;;0.00;0.00;;;;;10.28;94.71;99099.13;5077819;28;8835;-59
2023/12/26 05:58:47;;;;;;;;;0.00;0.00;;;;;10.27;94.50;99096.59;5098285;28;8826;-59
2023/12/26 06:01:16;;;;;;;;;0.50;0.50;;;;;10.25;94.12;99099.38;5098316;28;8828;-59
2023/12/26 06:03:43;;;;;;;;;0.00;0.00;;;;;10.20;94.50;99120.25;5098712;28;9561;-58
2023/12/26 06:06:11;;;;;;;;;0.00;0.00;;;;;10.15;94.22;99125.16;5098365;28;8842;-58
2023/12/26 06:08:40;;;;;;;;;0.00;0.00;;;;;10.07;94.03;99132.13;5097764;28;8948;-59
2023/12/26 06:11:08;;;;;;;;;0.00;0.00;;;;;9.97;94.37;99133.91;5098197;28;8873;-59
2023/12/26 06:13:36;;;;;;;;;0.00;0.00;;;;;9.89;94.08;99139.94;5097344;28;8834;-56
2023/12/26 06:16:04;;;;;;;;;0.00;0.00;;;;;9.83;94.57;99135.16;5097363;28;8938;-58
2023/12/26 06:18:32;;;;;;;;;0.00;0.00;;;;;9.79;94.67;99133.75;5095997;28;8844;-57
2023/12/26 06:21:00;;;;;;;;;0.00;0.00;;;;;9.76;94.79;99139.34;5096395;28;8854;-58
2023/12/26 06:23:28;;;;;;;;;0.00;0.00;;;;;9.73;94.98;99144.91;5096284;28;8814;-59
2023/12/26 06:25:55;;;;;;;;;0.00;0.00;;;;;9.73;95.23;99158.22;5096290;28;8978;-59
2023/12/26 06:28:23;;;;;;;;;0.00;0.00;;;;;9.75;95.41;99156.28;5096344;28;8821;-59
2023/12/26 06:30:51;;;;;;;;;0.00;0.00;;;;;9.76;94.91;99159.75;5096210;28;8868;-57
2023/12/26 06:33:19;;;;;;;;;0.00;0.00;;;;;9.78;95.26;99152.50;5097035;28;8883;-58
2023/12/26 06:35:49;;;;;;;;;0.00;0.00;;;;;9.79;95.04;99170.16;5097353;28;8949;-59
2023/12/26 06:38:17;;;;;;;;;0.50;0.50;;;;;9.80;95.19;99180.63;5097624;28;8826;-58
2023/12/26 06:40:45;;;;;;;;;0.00;0.00;;;;;9.82;95.20;99178.69;5097149;28;8861;-58
2023/12/26 06:43:14;;;;;;;;;0.00;0.00;;;;;9.84;95.01;99186.50;5098655;28;8822;-59
2023/12/26 06:45:42;;;;;;;;;1.00;1.00;;;;;9.83;94.82;99193.66;5096822;28;8899;-59
2023/12/26 06:48:10;;;;;;;;;1.75;0.50;;;;;9.87;94.77;99200.38;5101230;28;8796;-57
2023/12/26 06:50:38;;;;;;;;;1.00;0.00;;;;;9.89;95.15;99206.41;5103577;28;8880;-57
2023/12/26 06:53:05;;;;;;;;;0.00;0.00;;;;;9.91;95.00;99207.13;5098155;28;8822;-58
2023/12/26 06:55:33;;;;;;;;;2.00;1.00;;;;;9.94;95.03;99193.53;5117720;28;8839;-59
2023/12/26 06:58:02;;;;;;;;;1.00;1.00;;;;;9.98;94.50;99199.44;5117220;28;8877;-57
2023/12/26 07:00:29;;;;;;;;;1.00;1.00;;;;;9.98;94.60;99213.56;5116659;28;8832;-58
2023/12/26 07:02:57;;;;;;;;;1.75;0.75;;;;;10.00;94.85;99222.25;5115699;28;8836;-58
2023/12/26 07:05:25;;;;;;;;;0.25;0.25;;;;;10.00;94.38;99227.56;5102335;28;9513;-58
2023/12/26 07:07:54;;;;;;;;;0.00;0.00;;;;;10.02;94.49;99230.94;5116869;28;8854;-59
2023/12/26 07:10:21;;;;;;;;;0.50;0.00;;;;;10.03;94.65;99235.31;5116814;28;8881;-58
2023/12/26 07:12:49;;;;;;;;;3.00;1.00;;;;;10.03;94.42;99240.63;5116888;28;8860;-58
2023/12/26 07:15:18;;;;;;;;;1.00;0.75;;;;;10.05;94.70;99245.81;5117209;28;9500;-57
2023/12/26 07:17:46;;;;;;;;;0.25;0.25;;;;;10.04;94.60;99246.78;5116748;28;8970;-58
2023/12/26 07:20:13;;;;;;;;;2.00;2.00;;;;;10.05;94.32;99252.00;5116905;28;8820;-59
2023/12/26 07:22:42;;;;;;;;;3.25;2.50;;;;;10.06;94.45;99264.31;5094320;28;8904;-58
2023/12/26 07:25:10;;;;;;;;;0.00;0.00;;;;;10.07;94.46;99266.00;5076448;28;8824;-58
2023/12/26 07:27:37;;;;;;;;;1.50;1.00;;;;;10.07;94.39;99273.13;5076231;28;8846;-57
2023/12/26 07:30:06;;;;;;;;;0.75;0.75;;;;;10.05;94.07;99277.72;5076486;28;8970;-59
2023/12/26 07:32:34;;;;;;;;;0.00;0.00;;;;;10.04;94.10;99278.72;5076383;28;8832;-58
2023/12/26 07:35:01;;;;;;;;;0.50;0.00;;;;;10.01;94.22;99279.78;5076288;28;8824;-58
2023/12/26 07:37:29;;;;;;;;;4.00;4.00;;;;;9.96;93.93;99286.50;5076406;28;8958;-57
2023/12/26 07:39:57;;;;;;;;;3.00;1.00;;;;;9.93;94.00;99300.91;5077213;28;8824;-57
2023/12/26 07:42:25;;;;;;;;;0.00;0.00;;;;;9.91;93.91;99307.31;5082285;28;8826;-59
2023/12/26 07:44:52;;;;;;;;;1.00;1.00;;;;;9.89;93.98;99315.44;5096562;28;8815;-58
2023/12/26 07:47:20;;;;;;;;;1.00;1.00;;;;;9.88;94.08;99320.91;5095364;28;9599;-59
2023/12/26 07:49:48;;;;;;;;;1.00;1.00;;;;;9.87;94.26;99333.34;5095289;28;8837;-58
2023/12/26 07:52:16;;;;;;;;;0.00;0.00;;;;;9.88;93.85;99331.53;5094603;28;8848;-58
2023/12/26 07:54:44;;;;;;;;;2.00;2.00;;;;;9.88;94.04;99339.50;5096227;28;8832;-59
2023/12/26 07:57:12;;;;;;;;;0.00;0.00;;;;;9.86;94.17;99342.28;5095005;28;8838;-58
2023/12/26 07:59:40;;;;;;;;;0.00;0.00;;;;;9.83;94.38;99349.69;5096188;28;8903;-58
2023/12/26 08:02:08;;;;;;;;;0.00;0.00;;;;;9.80;93.99;99361.44;5098975;28;8899;-59
2023/12/26 08:04:36;;;;;;;;;0.00;0.00;;;;;9.79;94.15;99362.41;5096084;28;9526;-57
2023/12/26 08:07:05;;;;;;;;;1.00;1.00;;;;;9.78;94.20;99370.53;5095132;28;8810;-58
2023/12/26 08:09:33;;;;;;;;;0.75;0.75;;;;;9.76;94.06;99373.31;5095694;28;8826;-57
2023/12/26 08:12:01;;;;;;;;;0.25;0.00;;;;;9.75;94.08;99370.78;5095490;28;8838;-58
2023/12/26 08:14:29;;;;;;;;;1.00;1.00;;;;;9.74;94.00;99379.72;5096057;28;8807;-58
2023/12/26 08:16:57;;;;;;;;;1.50;1.00;;;;;9.71;93.84;99391.47;5095676;28;8849;-58
2023/12/26 08:19:24;;;;;;;;;0.75;0.75;;;;;9.67;94.20;99371.44;5095845;28;8826;-59
2023/12/26 08:21:52;;;;;;;;;1.00;1.00;;;;;9.63;93.64;99380.63;5095091;28;8851;-57
2023/12/26 08:24:20;;;;;;;;;0.00;0.00;;;;;9.62;93.95;99381.63;5096193;28;8836;-59
2023/12/26 08:26:48;;;;;;;;;0.75;0.75;;;;;9.64;93.97;99384.16;5095659;28;8846;-59
2023/12/26 08:29:16;;;;;;;;;0.75;0.00;;;;;9.64;93.94;99390.28;5098941;28;8806;-59
2023/12/26 08:31:43;;;;;;;;;1.75;1.50;;;;;9.63;93.89;99401.06;5113304;28;8820;-58
2023/12/26 08:34:12;;;;;;;;;0.25;0.25;;;;;9.63;94.45;99409.88;5110822;28;8868;-58
2023/12/26 08:36:40;;;;;;;;;1.00;1.00;;;;;9.63;94.32;99404.56;5095702;28;8903;-59
2023/12/26 08:39:07;;;;;;;;;0.00;0.00;;;;;9.66;93.88;99408.78;5095323;28;8818;-57
2023/12/26 08:41:35;;;;;;;;;0.00;0.00;;;;;9.67;93.85;99413.97;5095525;28;8850;-57
2023/12/26 08:44:03;;;;;;;;;0.00;0.00;;;;;9.66;93.69;99414.09;5095351;28;8826;-56
2023/12/26 08:46:31;;;;;;;;;0.00;0.00;;;;;9.61;93.89;99424.25;5097756;28;8888;-56
2023/12/26 08:48:59;;;;;;;;;3.25;3.00;;;;;9.56;93.61;99439.78;5074284;28;8824;-59
2023/12/26 08:51:27;;;;;;;;;0.00;0.00;;;;;9.53;94.10;99440.00;5074402;28;8859;-56
2023/12/26 08:53:55;;;;;;;;;0.00;0.00;;;;;9.53;93.73;99451.50;5074242;28;8851;-59
2023/12/26 08:56:23;;;;;;;;;0.00;0.00;;;;;9.51;93.75;99457.91;5074697;28;8891;-57
2023/12/26 08:58:51;;;;;;;;;0.00;0.00;;;;;9.49;93.63;99460.69;5074973;28;8824;-59
2023/12/26 09:01:19;;;;;;;;;0.00;0.00;;;;;9.48;93.89;99464.31;5074976;28;8978;-58
2023/12/26 09:03:46;;;;;;;;;1.00;1.00;;;;;9.48;93.66;99459.00;5076038;28;8836;-56
2023/12/26 09:06:14;;;;;;;;;0.00;0.00;;;;;9.45;93.37;99464.56;5075143;28;8828;-59
2023/12/26 09:08:42;;;;;;;;;0.00;0.00;;;;;9.43;93.22;99465.66;5075134;28;8843;-57
2023/12/26 09:11:10;;;;;;;;;0.00;0.00;;;;;9.42;93.34;99466.66;5074996;28;8913;-59
2023/12/26 09:13:38;;;;;;;;;0.00;0.00;;;;;9.42;93.48;99475.44;5075006;28;8836;-58
2023/12/26 09:16:04;;;;;;;;;3.00;1.00;;;;;9.41;93.38;99468.44;5074672;28;8843;-57
2023/12/26 09:18:33;;;;;;;;;1.50;0.00;;;;;9.45;93.33;99475.22;5075238;28;8828;-57
2023/12/26 09:21:01;;;;;;;;;0.00;0.00;;;;;9.51;93.54;99488.00;5075757;28;8844;-59
2023/12/26 09:23:28;;;;;;;;;0.00;0.00;;;;;9.59;92.89;99485.53;5084776;28;8829;-58
2023/12/26 09:25:56;;;;;;;;;0.00;0.00;;;;;9.68;92.88;99486.59;5097598;28;8937;-59
2023/12/26 09:28:24;;;;;;;;;0.25;0.00;;;;;9.74;92.63;99492.25;5097525;28;8968;-58
2023/12/26 09:30:52;;;;;;;;;0.00;0.00;;;;;9.77;92.51;99494.63;5098559;28;8911;-59
2023/12/26 09:33:20;;;;;;;;;0.00;0.00;;;;;9.76;92.68;99492.09;5098404;28;8854;-59
2023/12/26 09:35:48;;;;;;;;;0.00;0.00;;;;;9.74;92.39;99508.19;5097399;28;8841;-58
2023/12/26 09:38:16;;;;;;;;;0.00;0.00;;;;;9.70;92.28;99514.72;5097419;28;9511;-57
2023/12/26 09:40:44;;;;;;;;;0.00;0.00;;;;;9.67;92.48;99511.47;5098665;28;8942;-59
2023/12/26 09:43:12;;;;;;;;;0.00;0.00;;;;;9.60;92.38;99521.78;5097408;28;9654;-59
2023/12/26 09:45:40;;;;;;;;;0.00;0.00;;;;;9.53;91.96;99523.25;5097403;28;8818;-59
2023/12/26 09:48:08;;;;;;;;;0.00;0.00;;;;;9.46;92.29;99523.88;5097315;28;8864;-59
2023/12/26 09:50:36;;;;;;;;;0.00;0.00;;;;;9.43;91.71;99535.59;5097109;28;8818;-59
2023/12/26 09:53:04;;;;;;;;;0.00;0.00;;;;;9.45;92.70;99543.44;5097852;28;9606;-58
2023/12/26 09:55:32;;;;;;;;;0.00;0.00;;;;;9.45;92.30;99549.63;5097465;28;8825;-58
2023/12/26 09:58:00;;;;;;;;;0.25;0.00;;;;;9.55;92.52;99547.88;5097313;28;8866;-59
2023/12/26 10:00:27;;;;;;;;;0.00;0.00;;;;;9.75;91.85;99548.91;5097820;28;8826;-59
2023/12/26 10:02:56;;;;;;;;;0.00;0.00;;;;;9.94;91.81;99557.06;5098005;28;8838;-58
2023/12/26 10:05:25;;;;;;;;;0.00;0.00;;;;;10.08;91.98;99556.78;5097486;28;8837;-59
2023/12/26 10:07:53;;;;;;;;;0.00;0.00;;;;;10.27;91.20;99552.47;5097600;28;8833;-58
2023/12/26 10:10:20;;;;;;;;;0.50;0.50;;;;;10.49;90.67;99546.13;5095997;28;8956;-59
2023/12/26 10:12:48;;;;;;;;;0.00;0.00;;;;;10.55;90.24;99554.44;5096460;28;9874;-59
2023/12/26 10:15:16;;;;;;;;;0.00;0.00;;;;;10.57;89.88;99562.31;5117007;28;8816;-59
2023/12/26 10:17:46;;;;;;;;;0.50;0.50;;;;;10.58;89.69;99567.50;5104078;28;9476;-58
2023/12/26 10:20:14;;;;;;;;;0.00;0.00;;;;;10.75;90.02;99555.38;5096544;28;8837;-59
2023/12/26 10:22:43;;;;;;;;;0.00;0.00;;;;;10.79;89.42;99571.00;5097260;28;8833;-59
2023/12/26 10:25:11;;;;;;;;;0.00;0.00;;;;;10.78;89.49;99587.09;5096491;28;8838;-58
2023/12/26 10:27:40;;;;;;;;;0.00;0.00;;;;;10.69;89.06;99582.56;5096565;28;8830;-56
2023/12/26 10:30:08;;;;;;;;;1.00;0.50;;;;;10.57;89.55;99580.94;5095993;28;8927;-58
2023/12/26 10:32:36;;;;;;;;;0.50;0.00;;;;;10.44;89.51;99570.50;5096368;28;8834;-56
2023/12/26 10:35:04;;;;;;;;;0.25;0.00;;;;;10.36;89.53;99588.94;5096829;28;8821;-57
2023/12/26 10:37:32;;;;;;;;;1.00;1.00;;;;;10.33;89.67;99585.69;5097154;28;8915;-59
2023/12/26 10:40:01;;;;;;;;;3.00;2.00;;;;;10.32;89.52;99584.81;5095646;28;8842;-57
2023/12/26 10:42:29;;;;;;;;;0.00;0.00;;;;;10.29;89.58;99590.41;5095465;28;8838;-56
2023/12/26 10:44:57;;;;;;;;;1.00;1.00;;;;;10.25;89.92;99582.81;5096180;28;8844;-56
2023/12/26 10:47:25;;;;;;;;;1.50;1.50;;;;;10.18;90.14;99593.13;5095165;28;8850;-59
2023/12/26 10:49:55;;;;;;;;;0.25;0.25;;;;;10.11;89.35;99589.28;5096506;28;8860;-56
2023/12/26 10:52:24;;;;;;;;;0.00;0.00;;;;;10.05;89.59;99597.78;5096660;28;8907;-58
2023/12/26 10:54:52;;;;;;;;;0.50;0.00;;;;;10.01;90.26;99601.63;5096418;28;8919;-57
2023/12/26 10:57:19;;;;;;;;;3.00;3.00;;;;;9.96;89.95;99609.13;5096347;28;8914;-57
2023/12/26 13:53:15;;;;;;;;;2.00;1.00;;;;;10.36;83.95;99785.88;5097441;28;8834;-58
2023/12/26 13:55:42;;;;;;;;;1.00;1.00;;;;;10.41;83.33;99785.50;5096709;28;8830;-57
2023/12/26 13:58:10;;;;;;;;;1.00;1.00;;;;;10.45;82.90;99777.16;5096942;28;8834;-59
2023/12/26 14:00:38;;;;;;;;;1.00;0.00;;;;;10.54;82.83;99776.38;5100448;28;8859;-59
2023/12/26 14:03:06;;;;;;;;;0.00;0.00;;;;;10.50;82.87;99790.94;5097015;28;8903;-59
2023/12/26 14:05:33;;;;;;;;;1.50;0.50;;;;;10.38;83.51;99794.59;5098961;28;8821;-59
2023/12/26 14:08:04;;;;;;;;;0.00;0.00;;;;;10.29;83.37;99798.00;5097050;28;8842;-59
2023/12/26 14:10:32;;;;;;;;;1.00;1.00;;;;;10.22;83.29;99802.13;5099705;28;8900;-58
2023/12/26 14:13:00;;;;;;;;;0.75;0.75;;;;;10.15;83.59;99800.91;5101385;28;8869;-59
2023/12/26 14:15:28;;;;;;;;;1.00;1.00;;;;;10.08;83.39;99805.03;5100407;28;9495;-59
2023/12/26 14:17:56;;;;;;;;;0.75;0.75;;;;;10.03;83.24;99804.53;5118039;28;9493;-59
2023/12/26 14:20:25;;;;;;;;;0.50;0.50;;;;;9.96;83.28;99815.78;5117808;28;8834;-60
2023/12/26 14:22:53;;;;;;;;;0.00;0.00;;;;;9.91;84.02;99805.50;5117868;28;8847;-59
2023/12/26 14:25:21;;;;;;;;;1.50;0.50;;;;;9.89;83.57;99820.75;5118508;28;8843;-58
2023/12/26 14:27:49;;;;;;;;;3.00;2.00;;;;;9.82;83.50;99819.53;5100444;28;8800;-58
2023/12/26 14:30:17;;;;;;;;;1.00;0.50;;;;;9.79;83.71;99825.06;5118160;28;8823;-58
2023/12/26 14:32:45;;;;;;;;;0.75;0.75;;;;;9.76;84.00;99813.81;5118114;28;8831;-57
2023/12/26 14:35:13;;;;;;;;;0.00;0.00;;;;;9.72;83.91;99821.19;5117643;28;8866;-59
2023/12/26 14:37:41;;;;;;;;;0.50;0.50;;;;;9.69;83.50;99828.56;5117042;28;8838;-57
2023/12/26 14:40:10;;;;;;;;;1.00;1.00;;;;;9.67;83.63;99828.72;5117208;28;8920;-57